createdAt,value
2019-02-06T00:00:26.542Z,1022.73
2019-02-06T00:01:22.361Z,1022.74
2019-02-06T00:02:21.352Z,1022.70
2019-02-06T00:03:21.357Z,1022.69
2019-02-06T00:04:21.329Z,1022.68
2019-02-06T00:05:21.319Z,1022.67
2019-02-06T00:06:21.304Z,1022.73
2019-02-06T00:07:21.295Z,1022.72
2019-02-06T00:08:21.285Z,1022.71
2019-02-06T00:09:21.274Z,1022.70
2019-02-06T00:10:21.262Z,1022.73
2019-02-06T00:11:21.266Z,1022.73
2019-02-06T00:12:21.240Z,1022.77
2019-02-06T00:13:39.378Z,1022.77
2019-02-06T00:15:03.291Z,1022.80
2019-02-06T00:16:03.283Z,1022.77
2019-02-06T00:17:03.283Z,1022.75
2019-02-06T00:18:03.234Z,1022.79
2019-02-06T00:19:03.225Z,1022.79
2019-02-06T00:20:03.213Z,1022.79
2019-02-06T00:21:03.212Z,1022.82
2019-02-06T00:22:03.193Z,1022.85
2019-02-06T00:23:03.206Z,1022.80
2019-02-06T00:24:03.168Z,1022.84
2019-02-06T00:25:03.157Z,1022.81
2019-02-06T00:26:03.159Z,1022.82
2019-02-06T00:27:03.137Z,1022.80
2019-02-06T00:28:03.123Z,1022.76
2019-02-06T00:29:03.112Z,1022.77
2019-02-06T00:30:03.101Z,1022.77
2019-02-06T00:31:03.088Z,1022.80
2019-02-06T00:32:03.081Z,1022.76
2019-02-06T00:33:03.068Z,1022.77
2019-02-06T00:34:03.056Z,1022.78
2019-02-06T00:35:03.051Z,1022.79
2019-02-06T00:36:03.034Z,1022.75
2019-02-06T00:37:03.024Z,1022.79
2019-02-06T00:38:05.332Z,1022.75
2019-02-06T00:39:03.005Z,1022.76
2019-02-06T00:40:02.990Z,1022.75
2019-02-06T00:41:02.978Z,1022.79
2019-02-06T00:42:02.970Z,1022.77
2019-02-06T00:43:02.961Z,1022.79
2019-02-06T00:44:02.943Z,1022.78
2019-02-06T00:45:02.936Z,1022.83
2019-02-06T00:46:02.925Z,1022.82
2019-02-06T00:47:02.913Z,1022.76
2019-02-06T00:48:02.900Z,1022.80
2019-02-06T00:49:02.890Z,1022.77
2019-02-06T00:50:02.878Z,1022.82
2019-02-06T00:51:02.868Z,1022.77
2019-02-06T00:52:02.857Z,1022.77
2019-02-06T00:53:02.848Z,1022.79
2019-02-06T00:54:02.834Z,1022.73
2019-02-06T00:55:02.826Z,1022.79
2019-02-06T00:56:02.812Z,1022.75
2019-02-06T00:57:02.801Z,1022.74
2019-02-06T00:58:02.790Z,1022.79
2019-02-06T00:59:02.781Z,1022.75
2019-02-06T01:00:02.774Z,1022.74
2019-02-06T01:01:02.777Z,1022.76
2019-02-06T01:02:02.749Z,1022.76
2019-02-06T01:03:02.737Z,1022.73
2019-02-06T01:04:02.726Z,1022.78
2019-02-06T01:05:02.712Z,1022.74
2019-02-06T01:06:02.703Z,1022.75
2019-02-06T01:07:02.691Z,1022.78
2019-02-06T01:08:02.680Z,1022.79
2019-02-06T01:09:02.669Z,1022.83
2019-02-06T01:10:02.656Z,1022.82
2019-02-06T01:11:02.667Z,1022.85
2019-02-06T01:12:02.638Z,1022.85
2019-02-06T01:13:02.623Z,1022.87
2019-02-06T01:14:02.612Z,1022.90
2019-02-06T01:15:02.604Z,1022.87
2019-02-06T01:16:02.589Z,1022.87
2019-02-06T01:17:02.628Z,1022.88
2019-02-06T01:18:02.568Z,1022.86
2019-02-06T01:19:02.558Z,1022.88
2019-02-06T01:20:02.545Z,1022.85
2019-02-06T01:21:02.537Z,1022.86
2019-02-06T01:22:02.527Z,1022.85
2019-02-06T01:23:02.512Z,1022.85
2019-02-06T01:24:02.520Z,1022.86
2019-02-06T01:25:02.490Z,1022.83
2019-02-06T01:26:02.479Z,1022.78
2019-02-06T01:27:02.469Z,1022.76
2019-02-06T01:28:02.457Z,1022.83
2019-02-06T01:29:02.446Z,1022.80
2019-02-06T01:30:02.437Z,1022.83
2019-02-06T01:31:02.425Z,1022.84
2019-02-06T01:32:02.413Z,1022.86
2019-02-06T01:33:02.404Z,1022.85
2019-02-06T01:34:02.390Z,1022.82
2019-02-06T01:35:02.381Z,1022.81
2019-02-06T01:36:02.368Z,1022.82
2019-02-06T01:37:02.358Z,1022.82
2019-02-06T01:38:02.364Z,1022.86
2019-02-06T01:39:02.442Z,1022.82
2019-02-06T01:40:02.327Z,1022.84
2019-02-06T01:41:02.315Z,1022.84
2019-02-06T01:42:02.301Z,1022.84
2019-02-06T01:43:02.289Z,1022.86
2019-02-06T01:44:02.285Z,1022.84
2019-02-06T01:45:02.270Z,1022.90
2019-02-06T01:46:02.258Z,1022.83
2019-02-06T01:47:02.254Z,1022.88
2019-02-06T01:48:02.233Z,1022.90
2019-02-06T01:49:02.225Z,1022.88
2019-02-06T01:50:02.213Z,1022.85
2019-02-06T01:51:02.203Z,1022.92
2019-02-06T01:52:02.204Z,1022.90
2019-02-06T01:53:02.180Z,1022.87
2019-02-06T01:54:02.172Z,1022.88
2019-02-06T01:55:02.158Z,1022.83
2019-02-06T01:56:02.148Z,1022.83
2019-02-06T01:57:02.136Z,1022.80
2019-02-06T01:58:02.162Z,1022.85
2019-02-06T01:59:02.120Z,1022.81
2019-02-06T02:00:02.103Z,1022.86
2019-02-06T02:01:02.093Z,1022.80
2019-02-06T02:02:02.079Z,1022.85
2019-02-06T02:03:02.068Z,1022.84
2019-02-06T02:04:02.058Z,1022.86
2019-02-06T02:05:02.058Z,1022.85
2019-02-06T02:06:02.865Z,1022.88
2019-02-06T02:07:02.026Z,1022.89
2019-02-06T02:08:02.020Z,1022.86
2019-02-06T02:09:02.002Z,1022.90
2019-02-06T02:10:01.994Z,1022.87
2019-02-06T02:11:01.982Z,1022.90
2019-02-06T02:12:01.969Z,1022.83
2019-02-06T02:13:01.960Z,1022.83
2019-02-06T02:14:01.950Z,1022.84
2019-02-06T02:15:01.938Z,1022.81
2019-02-06T02:16:01.925Z,1022.78
2019-02-06T02:17:01.912Z,1022.85
2019-02-06T02:18:01.917Z,1022.82
2019-02-06T02:19:01.891Z,1022.74
2019-02-06T02:20:01.886Z,1022.73
2019-02-06T02:21:01.868Z,1022.76
2019-02-06T02:22:01.873Z,1022.74
2019-02-06T02:23:01.847Z,1022.73
2019-02-06T02:24:01.848Z,1022.77
2019-02-06T02:25:01.846Z,1022.76
2019-02-06T02:26:01.815Z,1022.74
2019-02-06T02:27:01.803Z,1022.77
2019-02-06T02:28:01.792Z,1022.75
2019-02-06T02:29:01.780Z,1022.76
2019-02-06T02:30:01.777Z,1022.75
2019-02-06T02:31:01.758Z,1022.83
2019-02-06T02:32:01.761Z,1022.82
2019-02-06T02:33:01.737Z,1022.87
2019-02-06T02:34:01.726Z,1022.86
2019-02-06T02:35:01.717Z,1022.89
2019-02-06T02:36:14.303Z,1022.90
2019-02-06T02:37:02.701Z,1022.88
2019-02-06T02:38:01.680Z,1022.85
2019-02-06T02:39:01.671Z,1022.90
2019-02-06T02:40:01.675Z,1022.87
2019-02-06T02:41:01.651Z,1022.85
2019-02-06T02:42:01.636Z,1022.85
2019-02-06T02:43:01.626Z,1022.86
2019-02-06T02:44:01.617Z,1022.86
2019-02-06T02:45:01.606Z,1022.84
2019-02-06T02:46:01.591Z,1022.86
2019-02-06T02:47:01.582Z,1022.80
2019-02-06T02:48:01.570Z,1022.79
2019-02-06T02:49:01.558Z,1022.78
2019-02-06T02:50:01.564Z,1022.81
2019-02-06T02:51:01.541Z,1022.81
2019-02-06T02:52:01.529Z,1022.79
2019-02-06T02:53:01.512Z,1022.82
2019-02-06T02:54:01.503Z,1022.75
2019-02-06T02:55:01.492Z,1022.80
2019-02-06T02:56:01.483Z,1022.78
2019-02-06T02:57:01.470Z,1022.82
2019-02-06T02:58:01.458Z,1022.79
2019-02-06T02:59:01.448Z,1022.81
2019-02-06T03:00:01.440Z,1022.80
2019-02-06T03:01:01.426Z,1022.77
2019-02-06T03:02:01.415Z,1022.78
2019-02-06T03:03:01.404Z,1022.76
2019-02-06T03:04:01.394Z,1022.78
2019-02-06T03:05:01.383Z,1022.79
2019-02-06T03:06:01.370Z,1022.74
2019-02-06T03:07:01.357Z,1022.78
2019-02-06T03:08:01.350Z,1022.79
2019-02-06T03:09:01.354Z,1022.74
2019-02-06T03:10:01.325Z,1022.73
2019-02-06T03:11:01.315Z,1022.76
2019-02-06T03:12:01.304Z,1022.77
2019-02-06T03:13:01.295Z,1022.80
2019-02-06T03:14:01.288Z,1022.77
2019-02-06T03:15:01.270Z,1022.77
2019-02-06T03:16:01.261Z,1022.77
2019-02-06T03:17:03.398Z,1022.77
2019-02-06T03:18:01.236Z,1022.77
2019-02-06T03:19:01.224Z,1022.79
2019-02-06T03:20:01.222Z,1022.75
2019-02-06T03:21:01.205Z,1022.77
2019-02-06T03:22:01.196Z,1022.75
2019-02-06T03:23:01.182Z,1022.72
2019-02-06T03:24:01.172Z,1022.68
2019-02-06T03:25:01.169Z,1022.65
2019-02-06T03:26:01.150Z,1022.65
2019-02-06T03:27:01.162Z,1022.66
2019-02-06T03:28:01.125Z,1022.65
2019-02-06T03:29:01.113Z,1022.66
2019-02-06T03:30:01.116Z,1022.69
2019-02-06T03:31:01.098Z,1022.67
2019-02-06T03:32:01.095Z,1022.62
2019-02-06T03:33:01.072Z,1022.67
2019-02-06T03:34:01.064Z,1022.66
2019-02-06T03:35:01.052Z,1022.63
2019-02-06T03:36:01.047Z,1022.66
2019-02-06T03:37:01.034Z,1022.64
2019-02-06T03:38:01.023Z,1022.61
2019-02-06T03:39:01.006Z,1022.68
2019-02-06T03:40:00.996Z,1022.64
2019-02-06T03:41:00.980Z,1022.64
2019-02-06T03:42:00.974Z,1022.66
2019-02-06T03:43:00.964Z,1022.70
2019-02-06T03:44:00.965Z,1022.69
2019-02-06T03:45:00.938Z,1022.67
2019-02-06T03:46:00.927Z,1022.65
2019-02-06T03:47:00.940Z,1022.65
2019-02-06T03:48:00.957Z,1022.63
2019-02-06T03:49:00.975Z,1022.64
2019-02-06T03:50:01.009Z,1022.58
2019-02-06T03:51:00.872Z,1022.60
2019-02-06T03:52:00.858Z,1022.60
2019-02-06T03:53:00.851Z,1022.58
2019-02-06T03:54:00.837Z,1022.59
2019-02-06T03:55:00.850Z,1022.55
2019-02-06T03:56:00.817Z,1022.58
2019-02-06T03:57:00.804Z,1022.52
2019-02-06T03:58:00.793Z,1022.57
2019-02-06T03:59:00.784Z,1022.57
2019-02-06T04:00:00.770Z,1022.54
2019-02-06T04:01:00.765Z,1022.58
2019-02-06T04:02:00.755Z,1022.58
2019-02-06T04:03:00.737Z,1022.54
2019-02-06T04:04:00.729Z,1022.61
2019-02-06T04:05:00.718Z,1022.60
2019-02-06T04:06:00.719Z,1022.62
2019-02-06T04:07:01.016Z,1022.63
2019-02-06T04:08:00.690Z,1022.65
2019-02-06T04:09:00.672Z,1022.62
2019-02-06T04:10:00.676Z,1022.63
2019-02-06T04:11:00.647Z,1022.62
2019-02-06T04:12:00.639Z,1022.57
2019-02-06T04:13:00.632Z,1022.61
2019-02-06T04:14:00.615Z,1022.60
2019-02-06T04:15:00.608Z,1022.59
2019-02-06T04:16:00.597Z,1022.56
2019-02-06T04:17:00.581Z,1022.58
2019-02-06T04:18:00.572Z,1022.52
2019-02-06T04:19:00.561Z,1022.48
2019-02-06T04:20:00.547Z,1022.47
2019-02-06T04:21:00.545Z,1022.52
2019-02-06T04:22:00.525Z,1022.49
2019-02-06T04:23:00.527Z,1022.45
2019-02-06T04:24:00.509Z,1022.42
2019-02-06T04:25:00.492Z,1022.45
2019-02-06T04:26:00.482Z,1022.45
2019-02-06T04:27:00.471Z,1022.45
2019-02-06T04:28:00.461Z,1022.47
2019-02-06T04:29:00.453Z,1022.37
2019-02-06T04:30:00.438Z,1022.44
2019-02-06T04:31:00.431Z,1022.44
2019-02-06T04:32:00.419Z,1022.49
2019-02-06T04:33:00.405Z,1022.51
2019-02-06T04:34:00.395Z,1022.50
2019-02-06T04:35:00.382Z,1022.50
2019-02-06T04:36:00.373Z,1022.47
2019-02-06T04:37:06.702Z,1022.49
2019-02-06T04:38:01.353Z,1022.49
2019-02-06T04:39:00.339Z,1022.54
2019-02-06T04:40:00.337Z,1022.52
2019-02-06T04:41:00.314Z,1022.52
2019-02-06T04:42:00.310Z,1022.52
2019-02-06T04:43:00.293Z,1022.53
2019-02-06T04:44:00.283Z,1022.52
2019-02-06T04:45:00.347Z,1022.50
2019-02-06T04:46:00.272Z,1022.45
2019-02-06T04:47:00.249Z,1022.48
2019-02-06T04:48:00.238Z,1022.45
2019-02-06T04:49:00.238Z,1022.43
2019-02-06T04:50:00.281Z,1022.44
2019-02-06T04:51:00.214Z,1022.47
2019-02-06T04:52:00.193Z,1022.44
2019-02-06T04:53:00.184Z,1022.43
2019-02-06T04:54:00.171Z,1022.48
2019-02-06T04:55:00.347Z,1022.44
2019-02-06T04:56:00.148Z,1022.49
2019-02-06T04:57:00.150Z,1022.42
2019-02-06T04:58:00.127Z,1022.44
2019-02-06T04:59:00.114Z,1022.41
2019-02-06T05:00:00.335Z,1022.45
2019-02-06T05:01:00.093Z,1022.39
2019-02-06T05:02:00.088Z,1022.37
2019-02-06T05:03:00.074Z,1022.37
2019-02-06T05:04:00.060Z,1022.36
2019-02-06T05:05:00.110Z,1022.35
2019-02-06T05:06:00.041Z,1022.40
2019-02-06T05:07:00.026Z,1022.38
2019-02-06T05:08:00.015Z,1022.33
2019-02-06T05:09:00.006Z,1022.34
2019-02-06T05:09:59.993Z,1022.33
2019-02-06T05:10:59.982Z,1022.36
2019-02-06T05:11:59.974Z,1022.39
2019-02-06T05:12:59.961Z,1022.35
2019-02-06T05:13:59.952Z,1022.35
2019-02-06T05:14:59.939Z,1022.32
2019-02-06T05:15:59.928Z,1022.37
2019-02-06T05:16:59.921Z,1022.34
2019-02-06T05:17:59.904Z,1022.36
2019-02-06T05:18:59.895Z,1022.34
2019-02-06T05:19:59.884Z,1022.37
2019-02-06T05:20:59.871Z,1022.42
2019-02-06T05:21:59.861Z,1022.38
2019-02-06T05:22:59.849Z,1022.43
2019-02-06T05:23:59.845Z,1022.44
2019-02-06T05:24:59.849Z,1022.42
2019-02-06T05:25:59.816Z,1022.39
2019-02-06T05:26:59.805Z,1022.40
2019-02-06T05:27:59.797Z,1022.42
2019-02-06T05:28:59.783Z,1022.40
2019-02-06T05:29:59.772Z,1022.40
2019-02-06T05:30:59.769Z,1022.44
2019-02-06T05:31:59.749Z,1022.42
2019-02-06T05:32:59.738Z,1022.38
2019-02-06T05:33:59.727Z,1022.42
2019-02-06T05:34:59.716Z,1022.39
2019-02-06T05:35:59.707Z,1022.36
2019-02-06T05:36:59.695Z,1022.38
2019-02-06T05:37:59.686Z,1022.35
2019-02-06T05:38:59.673Z,1022.36
2019-02-06T05:39:59.679Z,1022.39
2019-02-06T05:40:59.652Z,1022.35
2019-02-06T05:41:59.638Z,1022.40
2019-02-06T05:42:59.629Z,1022.41
2019-02-06T05:43:59.625Z,1022.41
2019-02-06T05:44:59.607Z,1022.40
2019-02-06T05:45:59.603Z,1022.45
2019-02-06T05:46:59.583Z,1022.43
2019-02-06T05:47:59.578Z,1022.45
2019-02-06T05:48:59.571Z,1022.46
2019-02-06T05:49:59.555Z,1022.47
2019-02-06T05:50:59.581Z,1022.46
2019-02-06T05:51:59.528Z,1022.46
2019-02-06T05:52:59.517Z,1022.45
2019-02-06T05:53:59.507Z,1022.44
2019-02-06T05:54:59.497Z,1022.43
2019-02-06T05:55:59.483Z,1022.39
2019-02-06T05:56:59.475Z,1022.39
2019-02-06T05:57:59.461Z,1022.41
2019-02-06T05:58:59.454Z,1022.42
2019-02-06T05:59:59.445Z,1022.40
2019-02-06T06:00:59.431Z,1022.34
2019-02-06T06:01:59.425Z,1022.38
2019-02-06T06:02:59.443Z,1022.38
2019-02-06T06:03:59.399Z,1022.39
2019-02-06T06:04:59.385Z,1022.40
2019-02-06T06:05:59.378Z,1022.39
2019-02-06T06:06:59.364Z,1022.38
2019-02-06T06:07:59.359Z,1022.39
2019-02-06T06:08:59.346Z,1022.42
2019-02-06T06:09:59.329Z,1022.42
2019-02-06T06:10:59.320Z,1022.43
2019-02-06T06:11:59.321Z,1022.45
2019-02-06T06:13:49.840Z,1022.41
2019-02-06T06:14:49.827Z,1022.47
2019-02-06T06:15:49.814Z,1022.46
2019-02-06T06:16:49.812Z,1022.53
2019-02-06T06:17:49.795Z,1022.51
2019-02-06T06:18:49.783Z,1022.43
2019-02-06T06:19:49.769Z,1022.48
2019-02-06T06:20:49.770Z,1022.45
2019-02-06T06:21:49.748Z,1022.47
2019-02-06T06:22:49.748Z,1022.45
2019-02-06T06:23:49.750Z,1022.44
2019-02-06T06:24:49.720Z,1022.47
2019-02-06T06:25:49.703Z,1022.44
2019-02-06T06:26:49.692Z,1022.42
2019-02-06T06:27:49.831Z,1022.36
2019-02-06T06:28:49.671Z,1022.36
2019-02-06T06:29:49.662Z,1022.36
2019-02-06T06:30:49.666Z,1022.31
2019-02-06T06:31:49.638Z,1022.34
2019-02-06T06:32:49.638Z,1022.37
2019-02-06T06:33:49.614Z,1022.34
2019-02-06T06:34:49.603Z,1022.37
2019-02-06T06:35:49.598Z,1022.36
2019-02-06T06:36:49.586Z,1022.37
2019-02-06T06:37:59.805Z,1022.42
2019-02-06T06:38:50.558Z,1022.38
2019-02-06T06:39:49.549Z,1022.33
2019-02-06T06:40:49.541Z,1022.35
2019-02-06T06:41:50.009Z,1022.34
2019-02-06T06:42:49.515Z,1022.33
2019-02-06T06:43:49.509Z,1022.40
2019-02-06T06:44:49.493Z,1022.33
2019-02-06T06:45:49.485Z,1022.34
2019-02-06T06:46:49.468Z,1022.31
2019-02-06T06:47:49.459Z,1022.34
2019-02-06T06:48:49.462Z,1022.34
2019-02-06T06:49:49.435Z,1022.36
2019-02-06T06:50:49.430Z,1022.37
2019-02-06T06:51:49.416Z,1022.33
2019-02-06T06:52:49.406Z,1022.33
2019-02-06T06:53:49.390Z,1022.30
2019-02-06T06:54:49.379Z,1022.31
2019-02-06T06:55:49.369Z,1022.32
2019-02-06T06:56:49.357Z,1022.32
2019-02-06T06:57:49.344Z,1022.30
2019-02-06T06:58:49.333Z,1022.28
2019-02-06T06:59:49.322Z,1022.22
2019-02-06T07:00:49.314Z,1022.22
2019-02-06T07:01:49.366Z,1022.22
2019-02-06T07:02:49.912Z,1022.24
2019-02-06T07:03:49.281Z,1022.24
2019-02-06T07:04:49.268Z,1022.23
2019-02-06T07:05:49.259Z,1022.23
2019-02-06T07:06:49.247Z,1022.17
2019-02-06T07:07:49.239Z,1022.23
2019-02-06T07:08:49.229Z,1022.22
2019-02-06T07:09:49.223Z,1022.24
2019-02-06T07:10:49.202Z,1022.25
2019-02-06T07:11:49.191Z,1022.24
2019-02-06T07:12:49.177Z,1022.21
2019-02-06T07:13:51.453Z,1022.16
2019-02-06T07:14:49.156Z,1022.17
2019-02-06T07:15:49.147Z,1022.19
2019-02-06T07:16:49.134Z,1022.11
2019-02-06T07:17:49.124Z,1022.16
2019-02-06T07:18:49.111Z,1022.16
2019-02-06T07:19:49.103Z,1022.17
2019-02-06T07:20:49.107Z,1022.17
2019-02-06T07:21:49.079Z,1022.12
2019-02-06T07:22:49.067Z,1022.12
2019-02-06T07:23:49.057Z,1022.03
2019-02-06T07:24:49.044Z,1022.03
2019-02-06T07:25:49.037Z,1022.01
2019-02-06T07:26:49.024Z,1022.00
2019-02-06T07:27:49.040Z,1021.96
2019-02-06T07:28:49.001Z,1021.96
2019-02-06T07:29:48.988Z,1021.91
2019-02-06T07:30:48.984Z,1021.91
2019-02-06T07:31:48.968Z,1021.88
2019-02-06T07:32:48.957Z,1021.87
2019-02-06T07:33:48.945Z,1021.88
2019-02-06T07:34:48.935Z,1021.83
2019-02-06T07:35:48.924Z,1021.83
2019-02-06T07:36:48.916Z,1021.79
2019-02-06T07:37:48.907Z,1021.83
2019-02-06T07:38:48.891Z,1021.84
2019-02-06T07:39:48.879Z,1021.79
2019-02-06T07:40:48.869Z,1021.82
2019-02-06T07:41:48.868Z,1021.84
2019-02-06T07:42:48.846Z,1021.87
2019-02-06T07:43:48.835Z,1021.94
2019-02-06T07:44:48.823Z,1021.92
2019-02-06T07:45:48.811Z,1021.95
2019-02-06T07:46:48.815Z,1021.94
2019-02-06T07:47:48.790Z,1021.92
2019-02-06T07:48:48.785Z,1022.00
2019-02-06T07:49:48.767Z,1022.00
2019-02-06T07:50:48.760Z,1022.01
2019-02-06T07:51:50.526Z,1021.94
2019-02-06T07:52:48.735Z,1021.97
2019-02-06T07:53:48.731Z,1021.94
2019-02-06T07:54:48.718Z,1021.94
2019-02-06T07:55:48.702Z,1021.91
2019-02-06T07:56:48.691Z,1021.97
2019-02-06T07:57:48.751Z,1021.95
2019-02-06T07:58:50.761Z,1021.95
2019-02-06T07:59:48.662Z,1021.98
2019-02-06T08:00:48.648Z,1021.92
2019-02-06T08:01:48.636Z,1021.96
2019-02-06T08:02:48.627Z,1022.00
2019-02-06T08:03:48.614Z,1022.01
2019-02-06T08:04:48.603Z,1022.06
2019-02-06T08:05:48.597Z,1022.10
2019-02-06T08:06:48.579Z,1022.10
2019-02-06T08:07:48.568Z,1022.06
2019-02-06T08:08:48.557Z,1022.08
2019-02-06T08:09:48.613Z,1022.09
2019-02-06T08:10:48.542Z,1022.09
2019-02-06T08:11:48.526Z,1022.10
2019-02-06T08:12:48.515Z,1022.08
2019-02-06T08:13:48.503Z,1022.04
2019-02-06T08:14:48.495Z,1022.06
2019-02-06T08:15:48.479Z,1022.04
2019-02-06T08:16:48.469Z,1022.03
2019-02-06T08:17:48.457Z,1022.01
2019-02-06T08:18:48.446Z,1022.00
2019-02-06T08:19:48.436Z,1022.01
2019-02-06T08:20:48.424Z,1021.99
2019-02-06T08:21:49.772Z,1021.99
2019-02-06T08:22:48.408Z,1022.02
2019-02-06T08:23:48.392Z,1022.03
2019-02-06T08:24:48.383Z,1022.00
2019-02-06T08:25:48.383Z,1022.07
2019-02-06T08:26:48.360Z,1022.01
2019-02-06T08:27:48.349Z,1022.04
2019-02-06T08:28:48.336Z,1021.99
2019-02-06T08:29:48.325Z,1021.97
2019-02-06T08:30:48.313Z,1021.88
2019-02-06T08:31:48.303Z,1021.91
2019-02-06T08:32:48.292Z,1021.90
2019-02-06T08:33:48.284Z,1021.89
2019-02-06T08:34:48.269Z,1021.84
2019-02-06T08:35:48.258Z,1021.81
2019-02-06T08:36:48.247Z,1021.84
2019-02-06T08:37:48.235Z,1021.79
2019-02-06T08:38:48.809Z,1021.76
2019-02-06T08:39:48.218Z,1021.75
2019-02-06T08:40:48.234Z,1021.75
2019-02-06T08:41:48.195Z,1021.74
2019-02-06T08:42:48.188Z,1021.71
2019-02-06T08:43:48.168Z,1021.76
2019-02-06T08:44:48.158Z,1021.71
2019-02-06T08:45:48.318Z,1021.77
2019-02-06T08:46:48.135Z,1021.71
2019-02-06T08:47:48.133Z,1021.74
2019-02-06T08:48:48.115Z,1021.69
2019-02-06T08:49:48.114Z,1021.71
2019-02-06T08:50:48.096Z,1021.73
2019-02-06T08:51:48.081Z,1021.67
2019-02-06T08:52:48.071Z,1021.67
2019-02-06T08:53:48.059Z,1021.69
2019-02-06T08:54:48.110Z,1021.63
2019-02-06T08:55:48.046Z,1021.65
2019-02-06T08:56:48.027Z,1021.56
2019-02-06T08:57:48.013Z,1021.56
2019-02-06T08:58:48.006Z,1021.56
2019-02-06T08:59:48.004Z,1021.52
2019-02-06T09:00:47.982Z,1021.56
2019-02-06T09:01:47.972Z,1021.54
2019-02-06T09:02:47.959Z,1021.51
2019-02-06T09:03:47.947Z,1021.50
2019-02-06T09:04:55.454Z,1021.53
2019-02-06T09:05:48.923Z,1021.52
2019-02-06T09:06:47.917Z,1021.52
2019-02-06T09:07:47.904Z,1021.46
2019-02-06T09:08:58.999Z,1021.42
2019-02-06T09:09:48.882Z,1021.41
2019-02-06T09:10:47.869Z,1021.44
2019-02-06T09:11:47.862Z,1021.43
2019-02-06T09:12:47.974Z,1021.45
2019-02-06T09:13:47.836Z,1021.47
2019-02-06T09:14:47.827Z,1021.45
2019-02-06T09:15:47.816Z,1021.42
2019-02-06T09:16:47.811Z,1021.47
2019-02-06T09:17:47.794Z,1021.45
2019-02-06T09:18:47.783Z,1021.49
2019-02-06T09:19:47.771Z,1021.45
2019-02-06T09:20:47.758Z,1021.49
2019-02-06T09:21:47.749Z,1021.49
2019-02-06T09:22:47.744Z,1021.53
2019-02-06T09:23:47.741Z,1021.51
2019-02-06T09:24:47.718Z,1021.54
2019-02-06T09:25:47.710Z,1021.52
2019-02-06T09:26:47.696Z,1021.56
2019-02-06T09:27:47.686Z,1021.50
2019-02-06T09:28:47.672Z,1021.50
2019-02-06T09:29:47.661Z,1021.49
2019-02-06T09:30:47.647Z,1021.36
2019-02-06T09:31:47.636Z,1021.43
2019-02-06T09:32:47.626Z,1021.49
2019-02-06T09:33:47.616Z,1021.43
2019-02-06T09:34:47.603Z,1021.50
2019-02-06T09:35:47.597Z,1021.50
2019-02-06T09:36:47.581Z,1021.51
2019-02-06T09:37:47.573Z,1021.55
2019-02-06T09:38:47.561Z,1021.49
2019-02-06T09:39:47.551Z,1021.54
2019-02-06T09:40:49.489Z,1021.52
2019-02-06T09:41:47.526Z,1021.50
2019-02-06T09:42:47.514Z,1021.51
2019-02-06T09:43:47.504Z,1021.47
2019-02-06T09:44:47.493Z,1021.49
2019-02-06T09:45:47.484Z,1021.46
2019-02-06T09:46:47.473Z,1021.46
2019-02-06T09:47:47.460Z,1021.41
2019-02-06T09:48:47.452Z,1021.43
2019-02-06T09:49:49.809Z,1021.45
2019-02-06T09:50:47.431Z,1021.37
2019-02-06T09:51:47.415Z,1021.36
2019-02-06T09:52:47.405Z,1021.27
2019-02-06T09:53:47.391Z,1021.33
2019-02-06T09:54:47.381Z,1021.25
2019-02-06T09:55:47.370Z,1021.31
2019-02-06T09:56:50.506Z,1021.25
2019-02-06T09:57:47.355Z,1021.29
2019-02-06T09:58:47.337Z,1021.29
2019-02-06T09:59:47.325Z,1021.31
2019-02-06T10:00:47.320Z,1021.30
2019-02-06T10:01:47.302Z,1021.29
2019-02-06T10:02:47.294Z,1021.29
2019-02-06T10:03:47.288Z,1021.22
2019-02-06T10:04:47.278Z,1021.21
2019-02-06T10:05:47.259Z,1021.16
2019-02-06T10:06:47.250Z,1021.21
2019-02-06T10:07:47.242Z,1021.21
2019-02-06T10:08:47.232Z,1021.15
2019-02-06T10:09:47.215Z,1021.20
2019-02-06T10:10:47.232Z,1021.20
2019-02-06T10:11:47.196Z,1021.19
2019-02-06T10:12:47.192Z,1021.21
2019-02-06T10:13:47.169Z,1021.15
2019-02-06T10:14:47.162Z,1021.16
2019-02-06T10:15:47.151Z,1021.13
2019-02-06T10:16:47.136Z,1021.13
2019-02-06T10:17:47.126Z,1021.13
2019-02-06T10:18:47.116Z,1021.13
2019-02-06T10:19:47.107Z,1021.09
2019-02-06T10:20:47.091Z,1021.07
2019-02-06T10:21:50.376Z,1021.05
2019-02-06T10:22:48.067Z,1021.01
2019-02-06T10:23:47.061Z,1021.10
2019-02-06T10:24:47.046Z,1021.00
2019-02-06T10:25:47.039Z,1021.02
2019-02-06T10:26:47.024Z,1020.99
2019-02-06T10:27:47.013Z,1020.94
2019-02-06T10:28:47.002Z,1020.93
2019-02-06T10:29:46.990Z,1020.88
2019-02-06T10:30:46.981Z,1020.91
2019-02-06T10:31:46.974Z,1020.86
2019-02-06T10:32:46.959Z,1020.82
2019-02-06T10:33:46.946Z,1020.82
2019-02-06T10:34:46.937Z,1020.80
2019-02-06T10:35:46.926Z,1020.75
2019-02-06T10:36:46.921Z,1020.77
2019-02-06T10:37:46.903Z,1020.74
2019-02-06T10:38:46.891Z,1020.71
2019-02-06T10:39:46.881Z,1020.68
2019-02-06T10:40:46.926Z,1020.57
2019-02-06T10:41:46.857Z,1020.63
2019-02-06T10:42:46.848Z,1020.63
2019-02-06T10:43:46.834Z,1020.59
2019-02-06T10:44:46.822Z,1020.58
2019-02-06T10:45:46.816Z,1020.59
2019-02-06T10:46:46.803Z,1020.61
2019-02-06T10:47:46.796Z,1020.57
2019-02-06T10:48:46.780Z,1020.57
2019-02-06T10:49:46.767Z,1020.62
2019-02-06T10:50:46.757Z,1020.58
2019-02-06T10:53:14.214Z,1020.52
2019-02-06T10:54:33.347Z,1020.49
2019-02-06T10:57:24.164Z,1020.41
2019-02-06T10:58:43.297Z,1020.40
2019-02-06T11:00:06.190Z,1020.36
2019-02-06T11:01:06.176Z,1020.37
2019-02-06T11:02:06.168Z,1020.37
2019-02-06T11:03:06.159Z,1020.35
2019-02-06T11:04:06.161Z,1020.32
2019-02-06T11:05:06.134Z,1020.27
2019-02-06T11:06:06.123Z,1020.29
2019-02-06T11:07:08.221Z,1020.29
2019-02-06T11:08:06.103Z,1020.30
2019-02-06T11:09:06.094Z,1020.30
2019-02-06T11:10:06.082Z,1020.32
2019-02-06T11:11:06.067Z,1020.26
2019-02-06T11:12:06.058Z,1020.15
2019-02-06T11:13:06.051Z,1020.27
2019-02-06T11:14:26.691Z,1020.20
2019-02-06T11:15:48.077Z,1020.20
2019-02-06T11:16:48.058Z,1020.15
2019-02-06T11:17:48.048Z,1020.11
2019-02-06T11:18:48.042Z,1020.07
2019-02-06T11:19:48.029Z,1020.14
2019-02-06T11:20:48.013Z,1020.08
2019-02-06T11:21:48.004Z,1020.05
2019-02-06T11:22:48.009Z,1020.02
2019-02-06T11:23:47.981Z,1020.06
2019-02-06T11:24:47.973Z,1020.05
2019-02-06T11:25:47.962Z,1020.04
2019-02-06T11:26:47.951Z,1020.13
2019-02-06T11:27:47.939Z,1020.11
2019-02-06T11:28:47.927Z,1020.12
2019-02-06T11:29:48.489Z,1020.08
2019-02-06T11:30:47.908Z,1020.09
2019-02-06T11:31:47.891Z,1020.13
2019-02-06T11:32:47.883Z,1020.04
2019-02-06T11:33:47.870Z,1020.10
2019-02-06T11:34:47.860Z,1019.99
2019-02-06T11:35:47.856Z,1020.03
2019-02-06T11:36:47.838Z,1020.04
2019-02-06T11:37:47.826Z,1020.02
2019-02-06T11:38:47.815Z,1019.95
2019-02-06T11:39:57.710Z,1019.97
2019-02-06T11:40:48.799Z,1019.97
2019-02-06T11:41:47.784Z,1019.97
2019-02-06T11:42:47.769Z,1019.92
2019-02-06T11:43:47.759Z,1019.90
2019-02-06T11:44:47.748Z,1019.80
2019-02-06T11:45:47.741Z,1019.83
2019-02-06T11:46:47.730Z,1019.78
2019-02-06T11:47:47.722Z,1019.76
2019-02-06T11:48:47.707Z,1019.77
2019-02-06T11:49:47.693Z,1019.79
2019-02-06T11:50:47.682Z,1019.76
2019-02-06T11:51:47.673Z,1019.71
2019-02-06T11:52:47.662Z,1019.66
2019-02-06T11:53:47.648Z,1019.74
2019-02-06T11:54:47.640Z,1019.70
2019-02-06T11:55:47.629Z,1019.70
2019-02-06T11:56:47.615Z,1019.70
2019-02-06T11:57:47.607Z,1019.65
2019-02-06T11:58:47.597Z,1019.59
2019-02-06T11:59:47.585Z,1019.62
2019-02-06T12:00:48.616Z,1019.54
2019-02-06T12:01:47.561Z,1019.49
2019-02-06T12:02:47.548Z,1019.48
2019-02-06T12:03:47.550Z,1019.49
2019-02-06T12:04:47.532Z,1019.41
2019-02-06T12:05:47.523Z,1019.43
2019-02-06T12:06:47.506Z,1019.42
2019-02-06T12:07:47.495Z,1019.39
2019-02-06T12:08:47.485Z,1019.43
2019-02-06T12:09:47.478Z,1019.36
2019-02-06T12:10:47.465Z,1019.38
2019-02-06T12:11:47.455Z,1019.28